sensor_id;sensor_type;location;lat;lon;timestamp;P1;durP1;ratioP1;P2;durP2;ratioP2
3916;SDS011;1973;50.518;7.318;2023-09-08T00:02:24;7.20;;;6.47;;
3916;SDS011;1973;50.518;7.318;2023-09-08T00:04:53;12.57;;;6.30;;
3916;SDS011;1973;50.518;7.318;2023-09-08T00:07:20;6.80;;;6.20;;
3916;SDS011;1973;50.518;7.318;2023-09-08T00:09:47;8.33;;;6.33;;
3916;SDS011;1973;50.518;7.318;2023-09-08T00:12:13;6.80;;;6.20;;
3916;SDS011;1973;50.518;7.318;2023-09-08T00:14:40;10.53;;;7.23;;
3916;SDS011;1973;50.518;7.318;2023-09-08T00:17:06;7.93;;;5.70;;
3916;SDS011;1973;50.518;7.318;2023-09-08T00:19:33;6.63;;;5.70;;
3916;SDS011;1973;50.518;7.318;2023-09-08T00:22:00;7.77;;;6.57;;
3916;SDS011;1973;50.518;7.318;2023-09-08T00:24:27;7.53;;;6.83;;
3916;SDS011;1973;50.518;7.318;2023-09-08T00:26:54;7.10;;;6.40;;
3916;SDS011;1973;50.518;7.318;2023-09-08T00:29:20;8.47;;;5.90;;
3916;SDS011;1973;50.518;7.318;2023-09-08T00:31:47;6.77;;;6.13;;
3916;SDS011;1973;50.518;7.318;2023-09-08T00:34:13;7.10;;;6.40;;
3916;SDS011;1973;50.518;7.318;2023-09-08T00:36:40;6.97;;;6.27;;
3916;SDS011;1973;50.518;7.318;2023-09-08T00:39:06;7.10;;;6.40;;
3916;SDS011;1973;50.518;7.318;2023-09-08T00:41:33;6.97;;;6.37;;
3916;SDS011;1973;50.518;7.318;2023-09-08T00:44:00;9.10;;;6.77;;
3916;SDS011;1973;50.518;7.318;2023-09-08T00:46:26;7.53;;;6.23;;
3916;SDS011;1973;50.518;7.318;2023-09-08T00:48:54;8.73;;;6.80;;
3916;SDS011;1973;50.518;7.318;2023-09-08T00:51:21;6.90;;;6.27;;
3916;SDS011;1973;50.518;7.318;2023-09-08T00:53:49;12.60;;;6.63;;
3916;SDS011;1973;50.518;7.318;2023-09-08T00:56:16;8.80;;;6.40;;
3916;SDS011;1973;50.518;7.318;2023-09-08T00:58:42;9.00;;;6.63;;
3916;SDS011;1973;50.518;7.318;2023-09-08T01:01:09;7.00;;;6.30;;
3916;SDS011;1973;50.518;7.318;2023-09-08T01:03:36;7.10;;;6.40;;
3916;SDS011;1973;50.518;7.318;2023-09-08T01:06:03;6.67;;;6.07;;
3916;SDS011;1973;50.518;7.318;2023-09-08T01:08:30;6.73;;;6.13;;
3916;SDS011;1973;50.518;7.318;2023-09-08T01:10:57;8.33;;;6.90;;
3916;SDS011;1973;50.518;7.318;2023-09-08T01:13:24;7.47;;;6.77;;
3916;SDS011;1973;50.518;7.318;2023-09-08T01:18:26;6.50;;;5.90;;
3916;SDS011;1973;50.518;7.318;2023-09-08T01:26:35;8.17;;;7.00;;
3916;SDS011;1973;50.518;7.318;2023-09-08T01:29:07;6.40;;;5.80;;
3916;SDS011;1973;50.518;7.318;2023-09-08T01:31:36;6.80;;;6.17;;
3916;SDS011;1973;50.518;7.318;2023-09-08T01:34:04;7.60;;;6.90;;
3916;SDS011;1973;50.518;7.318;2023-09-08T01:36:34;6.63;;;5.93;;
3916;SDS011;1973;50.518;7.318;2023-09-08T01:39:01;6.70;;;6.10;;
3916;SDS011;1973;50.518;7.318;2023-09-08T01:41:29;8.83;;;6.63;;
3916;SDS011;1973;50.518;7.318;2023-09-08T01:43:57;8.07;;;6.73;;
3916;SDS011;1973;50.518;7.318;2023-09-08T01:46:25;9.73;;;5.93;;
3916;SDS011;1973;50.518;7.318;2023-09-08T01:48:51;8.13;;;6.70;;
3916;SDS011;1973;50.518;7.318;2023-09-08T01:51:18;6.70;;;6.10;;
3916;SDS011;1973;50.518;7.318;2023-09-08T01:53:44;8.40;;;7.33;;
3916;SDS011;1973;50.518;7.318;2023-09-08T01:56:11;6.90;;;6.30;;
3916;SDS011;1973;50.518;7.318;2023-09-08T01:58:37;8.90;;;6.83;;
3916;SDS011;1973;50.518;7.318;2023-09-08T02:01:04;6.93;;;6.13;;
3916;SDS011;1973;50.518;7.318;2023-09-08T02:03:32;7.10;;;6.40;;
3916;SDS011;1973;50.518;7.318;2023-09-08T02:05:59;8.20;;;7.33;;
3916;SDS011;1973;50.518;7.318;2023-09-08T02:08:25;7.60;;;6.80;;
3916;SDS011;1973;50.518;7.318;2023-09-08T02:10:52;7.80;;;7.00;;
3916;SDS011;1973;50.518;7.318;2023-09-08T02:13:19;10.13;;;6.43;;
3916;SDS011;1973;50.518;7.318;2023-09-08T02:15:45;6.93;;;6.23;;
3916;SDS011;1973;50.518;7.318;2023-09-08T02:18:12;11.30;;;7.80;;
3916;SDS011;1973;50.518;7.318;2023-09-08T02:20:39;7.20;;;6.50;;
3916;SDS011;1973;50.518;7.318;2023-09-08T02:23:07;8.20;;;6.77;;
3916;SDS011;1973;50.518;7.318;2023-09-08T02:25:34;7.30;;;6.60;;
3916;SDS011;1973;50.518;7.318;2023-09-08T02:28:00;8.10;;;7.40;;
3916;SDS011;1973;50.518;7.318;2023-09-08T02:30:27;6.67;;;6.07;;
3916;SDS011;1973;50.518;7.318;2023-09-08T02:32:54;6.90;;;6.30;;
3916;SDS011;1973;50.518;7.318;2023-09-08T02:35:25;8.07;;;7.27;;
3916;SDS011;1973;50.518;7.318;2023-09-08T02:37:51;10.33;;;6.33;;
3916;SDS011;1973;50.518;7.318;2023-09-08T02:40:18;8.33;;;7.43;;
3916;SDS011;1973;50.518;7.318;2023-09-08T02:42:46;8.20;;;7.13;;
3916;SDS011;1973;50.518;7.318;2023-09-08T02:45:13;10.60;;;7.20;;
3916;SDS011;1973;50.518;7.318;2023-09-08T02:47:40;10.20;;;7.60;;
3916;SDS011;1973;50.518;7.318;2023-09-08T02:50:06;9.03;;;8.17;;
3916;SDS011;1973;50.518;7.318;2023-09-08T02:52:33;8.03;;;7.23;;
3916;SDS011;1973;50.518;7.318;2023-09-08T02:55:00;7.17;;;6.43;;
3916;SDS011;1973;50.518;7.318;2023-09-08T02:57:26;9.20;;;6.73;;
3916;SDS011;1973;50.518;7.318;2023-09-08T02:59:53;7.90;;;7.20;;
3916;SDS011;1973;50.518;7.318;2023-09-08T03:02:24;9.10;;;7.57;;
3916;SDS011;1973;50.518;7.318;2023-09-08T03:04:51;8.13;;;7.33;;
3916;SDS011;1973;50.518;7.318;2023-09-08T03:07:18;10.20;;;7.70;;
3916;SDS011;1973;50.518;7.318;2023-09-08T03:09:45;8.30;;;7.50;;
3916;SDS011;1973;50.518;7.318;2023-09-08T03:12:11;8.23;;;7.33;;
3916;SDS011;1973;50.518;7.318;2023-09-08T03:14:38;8.60;;;7.80;;
3916;SDS011;1973;50.518;7.318;2023-09-08T03:17:04;8.53;;;7.63;;
3916;SDS011;1973;50.518;7.318;2023-09-08T03:19:32;11.33;;;8.37;;
3916;SDS011;1973;50.518;7.318;2023-09-08T03:21:59;8.47;;;7.67;;
3916;SDS011;1973;50.518;7.318;2023-09-08T03:24:26;8.70;;;7.70;;
3916;SDS011;1973;50.518;7.318;2023-09-08T03:26:52;11.33;;;8.63;;
3916;SDS011;1973;50.518;7.318;2023-09-08T03:29:19;9.00;;;7.43;;
3916;SDS011;1973;50.518;7.318;2023-09-08T03:31:46;11.00;;;7.17;;
3916;SDS011;1973;50.518;7.318;2023-09-08T03:34:12;8.80;;;7.27;;
3916;SDS011;1973;50.518;7.318;2023-09-08T03:36:39;8.13;;;7.30;;
3916;SDS011;1973;50.518;7.318;2023-09-08T03:39:06;9.60;;;7.63;;
3916;SDS011;1973;50.518;7.318;2023-09-08T03:41:35;8.80;;;7.90;;
3916;SDS011;1973;50.518;7.318;2023-09-08T03:44:02;8.00;;;7.20;;
3916;SDS011;1973;50.518;7.318;2023-09-08T03:46:28;9.07;;;7.40;;
3916;SDS011;1973;50.518;7.318;2023-09-08T03:48:55;7.63;;;6.93;;
3916;SDS011;1973;50.518;7.318;2023-09-08T03:51:27;8.13;;;7.43;;
3916;SDS011;1973;50.518;7.318;2023-09-08T03:53:54;7.50;;;6.90;;
3916;SDS011;1973;50.518;7.318;2023-09-08T03:56:21;8.27;;;6.80;;
3916;SDS011;1973;50.518;7.318;2023-09-08T03:58:47;8.40;;;7.03;;
3916;SDS011;1973;50.518;7.318;2023-09-08T04:01:15;9.27;;;6.83;;
3916;SDS011;1973;50.518;7.318;2023-09-08T04:03:41;9.37;;;7.50;;
3916;SDS011;1973;50.518;7.318;2023-09-08T04:06:08;7.77;;;6.40;;
3916;SDS011;1973;50.518;7.318;2023-09-08T04:08:35;10.23;;;7.63;;
3916;SDS011;1973;50.518;7.318;2023-09-08T04:11:02;9.33;;;7.57;;
3916;SDS011;1973;50.518;7.318;2023-09-08T04:13:28;9.27;;;8.27;;
3916;SDS011;1973;50.518;7.318;2023-09-08T04:15:55;7.70;;;6.90;;
3916;SDS011;1973;50.518;7.318;2023-09-08T04:18:21;9.13;;;8.10;;
3916;SDS011;1973;50.518;7.318;2023-09-08T04:20:48;9.73;;;7.50;;
3916;SDS011;1973;50.518;7.318;2023-09-08T04:23:15;9.83;;;8.40;;
3916;SDS011;1973;50.518;7.318;2023-09-08T04:25:41;9.23;;;8.23;;
3916;SDS011;1973;50.518;7.318;2023-09-08T04:28:08;9.23;;;8.30;;
3916;SDS011;1973;50.518;7.318;2023-09-08T04:30:35;8.57;;;7.67;;
3916;SDS011;1973;50.518;7.318;2023-09-08T04:33:01;7.97;;;7.13;;
3916;SDS011;1973;50.518;7.318;2023-09-08T04:35:28;8.37;;;7.57;;
3916;SDS011;1973;50.518;7.318;2023-09-08T04:37:54;8.57;;;7.77;;
3916;SDS011;1973;50.518;7.318;2023-09-08T04:40:21;9.67;;;6.97;;
3916;SDS011;1973;50.518;7.318;2023-09-08T04:42:48;10.10;;;8.80;;
3916;SDS011;1973;50.518;7.318;2023-09-08T04:45:15;8.40;;;7.60;;
3916;SDS011;1973;50.518;7.318;2023-09-08T04:47:42;8.80;;;7.90;;
3916;SDS011;1973;50.518;7.318;2023-09-08T04:50:09;11.73;;;8.63;;
3916;SDS011;1973;50.518;7.318;2023-09-08T04:52:35;8.57;;;7.77;;
3916;SDS011;1973;50.518;7.318;2023-09-08T04:55:02;9.00;;;8.10;;
3916;SDS011;1973;50.518;7.318;2023-09-08T04:57:29;9.20;;;8.30;;
3916;SDS011;1973;50.518;7.318;2023-09-08T04:59:55;9.40;;;7.47;;
3916;SDS011;1973;50.518;7.318;2023-09-08T05:02:22;10.23;;;8.33;;
3916;SDS011;1973;50.518;7.318;2023-09-08T05:04:49;9.33;;;8.40;;
3916;SDS011;1973;50.518;7.318;2023-09-08T05:07:15;8.23;;;7.40;;
3916;SDS011;1973;50.518;7.318;2023-09-08T05:09:42;7.87;;;7.07;;
3916;SDS011;1973;50.518;7.318;2023-09-08T05:12:08;8.53;;;7.27;;
3916;SDS011;1973;50.518;7.318;2023-09-08T05:14:35;11.80;;;7.80;;
3916;SDS011;1973;50.518;7.318;2023-09-08T05:17:01;8.47;;;7.37;;
3916;SDS011;1973;50.518;7.318;2023-09-08T05:19:28;9.80;;;7.10;;
3916;SDS011;1973;50.518;7.318;2023-09-08T05:21:55;9.80;;;8.20;;
3916;SDS011;1973;50.518;7.318;2023-09-08T05:24:21;7.77;;;7.07;;
3916;SDS011;1973;50.518;7.318;2023-09-08T05:26:48;8.47;;;7.63;;
3916;SDS011;1973;50.518;7.318;2023-09-08T05:29:15;8.80;;;7.90;;
3916;SDS011;1973;50.518;7.318;2023-09-08T05:31:41;10.17;;;7.60;;
3916;SDS011;1973;50.518;7.318;2023-09-08T05:34:08;10.20;;;7.73;;
3916;SDS011;1973;50.518;7.318;2023-09-08T05:36:35;8.50;;;7.70;;
3916;SDS011;1973;50.518;7.318;2023-09-08T05:39:04;9.60;;;7.60;;
3916;SDS011;1973;50.518;7.318;2023-09-08T05:41:31;11.63;;;7.87;;
3916;SDS011;1973;50.518;7.318;2023-09-08T05:44:00;9.57;;;8.67;;
3916;SDS011;1973;50.518;7.318;2023-09-08T05:46:27;8.73;;;7.93;;
3916;SDS011;1973;50.518;7.318;2023-09-08T05:48:53;9.40;;;8.50;;
3916;SDS011;1973;50.518;7.318;2023-09-08T05:51:20;8.60;;;7.70;;
3916;SDS011;1973;50.518;7.318;2023-09-08T05:53:47;8.80;;;7.90;;
3916;SDS011;1973;50.518;7.318;2023-09-08T05:56:13;10.23;;;7.90;;
3916;SDS011;1973;50.518;7.318;2023-09-08T05:58:40;8.20;;;7.40;;
3916;SDS011;1973;50.518;7.318;2023-09-08T06:01:06;8.20;;;7.40;;
3916;SDS011;1973;50.518;7.318;2023-09-08T06:03:33;12.00;;;8.13;;
3916;SDS011;1973;50.518;7.318;2023-09-08T06:06:00;9.50;;;8.60;;
3916;SDS011;1973;50.518;7.318;2023-09-08T06:08:26;8.47;;;7.67;;
3916;SDS011;1973;50.518;7.318;2023-09-08T06:10:53;9.20;;;7.40;;
3916;SDS011;1973;50.518;7.318;2023-09-08T06:13:20;10.00;;;7.40;;
3916;SDS011;1973;50.518;7.318;2023-09-08T06:15:46;8.53;;;7.60;;
3916;SDS011;1973;50.518;7.318;2023-09-08T06:18:13;8.80;;;7.37;;
3916;SDS011;1973;50.518;7.318;2023-09-08T06:20:46;9.30;;;8.10;;
3916;SDS011;1973;50.518;7.318;2023-09-08T06:23:13;9.20;;;8.30;;
3916;SDS011;1973;50.518;7.318;2023-09-08T06:25:40;9.50;;;8.47;;
3916;SDS011;1973;50.518;7.318;2023-09-08T06:28:07;9.53;;;7.97;;
3916;SDS011;1973;50.518;7.318;2023-09-08T06:30:34;9.20;;;7.37;;
3916;SDS011;1973;50.518;7.318;2023-09-08T06:33:00;9.07;;;8.20;;
3916;SDS011;1973;50.518;7.318;2023-09-08T06:35:27;8.20;;;7.40;;
3916;SDS011;1973;50.518;7.318;2023-09-08T06:37:54;8.87;;;8.03;;
3916;SDS011;1973;50.518;7.318;2023-09-08T06:40:21;8.00;;;7.30;;
3916;SDS011;1973;50.518;7.318;2023-09-08T06:42:47;9.70;;;8.70;;
3916;SDS011;1973;50.518;7.318;2023-09-08T06:45:14;9.90;;;9.00;;
3916;SDS011;1973;50.518;7.318;2023-09-08T06:47:41;8.53;;;7.80;;
3916;SDS011;1973;50.518;7.318;2023-09-08T06:50:08;9.23;;;8.30;;
3916;SDS011;1973;50.518;7.318;2023-09-08T06:52:35;10.60;;;8.80;;
3916;SDS011;1973;50.518;7.318;2023-09-08T06:55:02;8.90;;;7.57;;
3916;SDS011;1973;50.518;7.318;2023-09-08T06:57:29;11.33;;;8.70;;
3916;SDS011;1973;50.518;7.318;2023-09-08T06:59:55;10.07;;;9.00;;
3916;SDS011;1973;50.518;7.318;2023-09-08T07:02:22;10.73;;;9.13;;
3916;SDS011;1973;50.518;7.318;2023-09-08T07:04:49;9.90;;;8.80;;
3916;SDS011;1973;50.518;7.318;2023-09-08T07:07:15;10.70;;;8.73;;
3916;SDS011;1973;50.518;7.318;2023-09-08T07:09:42;15.47;;;10.90;;
3916;SDS011;1973;50.518;7.318;2023-09-08T07:12:09;11.20;;;10.00;;
3916;SDS011;1973;50.518;7.318;2023-09-08T07:14:35;12.53;;;9.47;;
3916;SDS011;1973;50.518;7.318;2023-09-08T07:17:02;13.60;;;8.97;;
3916;SDS011;1973;50.518;7.318;2023-09-08T07:19:29;10.27;;;9.20;;
3916;SDS011;1973;50.518;7.318;2023-09-08T07:21:55;10.40;;;9.30;;
3916;SDS011;1973;50.518;7.318;2023-09-08T07:24:22;9.13;;;8.23;;
3916;SDS011;1973;50.518;7.318;2023-09-08T07:26:50;11.77;;;9.03;;
3916;SDS011;1973;50.518;7.318;2023-09-08T07:29:17;9.43;;;8.33;;
3916;SDS011;1973;50.518;7.318;2023-09-08T07:31:45;12.23;;;9.30;;
3916;SDS011;1973;50.518;7.318;2023-09-08T07:34:11;10.77;;;8.73;;
3916;SDS011;1973;50.518;7.318;2023-09-08T07:36:38;12.53;;;8.70;;
3916;SDS011;1973;50.518;7.318;2023-09-08T07:39:04;9.60;;;7.63;;
3916;SDS011;1973;50.518;7.318;2023-09-08T07:41:31;9.87;;;8.43;;
3916;SDS011;1973;50.518;7.318;2023-09-08T07:43:57;9.40;;;8.13;;
3916;SDS011;1973;50.518;7.318;2023-09-08T07:46:24;8.80;;;7.90;;
3916;SDS011;1973;50.518;7.318;2023-09-08T07:48:51;11.23;;;8.57;;
3916;SDS011;1973;50.518;7.318;2023-09-08T07:51:18;9.33;;;8.43;;
3916;SDS011;1973;50.518;7.318;2023-09-08T07:53:45;9.27;;;8.37;;
3916;SDS011;1973;50.518;7.318;2023-09-08T07:56:12;9.80;;;8.27;;
3916;SDS011;1973;50.518;7.318;2023-09-08T07:58:38;13.80;;;8.20;;
3916;SDS011;1973;50.518;7.318;2023-09-08T08:01:06;9.43;;;8.50;;
3916;SDS011;1973;50.518;7.318;2023-09-08T08:03:33;11.83;;;8.67;;
3916;SDS011;1973;50.518;7.318;2023-09-08T08:06:01;10.53;;;9.57;;
3916;SDS011;1973;50.518;7.318;2023-09-08T08:08:28;18.10;;;10.13;;
3916;SDS011;1973;50.518;7.318;2023-09-08T08:10:55;9.63;;;8.37;;
3916;SDS011;1973;50.518;7.318;2023-09-08T08:13:22;18.10;;;8.93;;
3916;SDS011;1973;50.518;7.318;2023-09-08T08:15:48;9.60;;;8.70;;
3916;SDS011;1973;50.518;7.318;2023-09-08T08:18:16;10.80;;;8.70;;
3916;SDS011;1973;50.518;7.318;2023-09-08T08:20:43;12.07;;;9.70;;
3916;SDS011;1973;50.518;7.318;2023-09-08T08:23:10;12.70;;;9.23;;
3916;SDS011;1973;50.518;7.318;2023-09-08T08:25:36;13.43;;;9.80;;
3916;SDS011;1973;50.518;7.318;2023-09-08T08:28:03;10.83;;;8.10;;
3916;SDS011;1973;50.518;7.318;2023-09-08T08:30:30;10.70;;;8.67;;
3916;SDS011;1973;50.518;7.318;2023-09-08T08:32:56;10.30;;;7.80;;
3916;SDS011;1973;50.518;7.318;2023-09-08T08:35:23;9.47;;;8.23;;
3916;SDS011;1973;50.518;7.318;2023-09-08T08:37:50;9.20;;;8.07;;
3916;SDS011;1973;50.518;7.318;2023-09-08T08:40:16;11.20;;;10.00;;
3916;SDS011;1973;50.518;7.318;2023-09-08T08:42:43;9.30;;;8.40;;
3916;SDS011;1973;50.518;7.318;2023-09-08T08:45:10;9.70;;;8.73;;
3916;SDS011;1973;50.518;7.318;2023-09-08T08:47:41;8.07;;;7.20;;
3916;SDS011;1973;50.518;7.318;2023-09-08T08:50:08;9.60;;;7.27;;
3916;SDS011;1973;50.518;7.318;2023-09-08T08:52:37;8.83;;;6.67;;
3916;SDS011;1973;50.518;7.318;2023-09-08T08:55:04;11.10;;;6.77;;
3916;SDS011;1973;50.518;7.318;2023-09-08T08:57:32;15.10;;;7.30;;
3916;SDS011;1973;50.518;7.318;2023-09-08T08:59:59;9.07;;;6.83;;
3916;SDS011;1973;50.518;7.318;2023-09-08T09:02:27;8.43;;;6.70;;
3916;SDS011;1973;50.518;7.318;2023-09-08T09:04:55;8.03;;;7.23;;
3916;SDS011;1973;50.518;7.318;2023-09-08T09:07:23;6.83;;;6.13;;
3916;SDS011;1973;50.518;7.318;2023-09-08T09:09:51;9.93;;;7.37;;
3916;SDS011;1973;50.518;7.318;2023-09-08T09:12:18;7.63;;;6.20;;
3916;SDS011;1973;50.518;7.318;2023-09-08T09:14:45;11.60;;;7.30;;
3916;SDS011;1973;50.518;7.318;2023-09-08T09:17:14;8.43;;;7.40;;
3916;SDS011;1973;50.518;7.318;2023-09-08T09:19:41;8.80;;;6.70;;
3916;SDS011;1973;50.518;7.318;2023-09-08T09:22:07;7.00;;;6.30;;
3916;SDS011;1973;50.518;7.318;2023-09-08T09:24:35;8.70;;;5.73;;
3916;SDS011;1973;50.518;7.318;2023-09-08T09:27:05;12.20;;;6.73;;
3916;SDS011;1973;50.518;7.318;2023-09-08T09:29:43;8.00;;;6.27;;
3916;SDS011;1973;50.518;7.318;2023-09-08T09:32:12;8.40;;;6.57;;
3916;SDS011;1973;50.518;7.318;2023-09-08T09:34:47;8.80;;;6.37;;
3916;SDS011;1973;50.518;7.318;2023-09-08T09:37:20;7.93;;;6.63;;
3916;SDS011;1973;50.518;7.318;2023-09-08T09:39:50;7.33;;;6.67;;
3916;SDS011;1973;50.518;7.318;2023-09-08T09:42:18;7.00;;;6.30;;
3916;SDS011;1973;50.518;7.318;2023-09-08T09:44:49;8.23;;;6.33;;
3916;SDS011;1973;50.518;7.318;2023-09-08T09:47:17;6.93;;;6.33;;
3916;SDS011;1973;50.518;7.318;2023-09-08T09:49:46;9.80;;;6.23;;
3916;SDS011;1973;50.518;7.318;2023-09-08T09:52:19;6.37;;;5.83;;
3916;SDS011;1973;50.518;7.318;2023-09-08T09:54:48;8.17;;;6.10;;
3916;SDS011;1973;50.518;7.318;2023-09-08T09:57:20;6.90;;;6.20;;
3916;SDS011;1973;50.518;7.318;2023-09-08T09:59:47;6.83;;;6.23;;
3916;SDS011;1973;50.518;7.318;2023-09-08T10:02:17;6.80;;;5.57;;
3916;SDS011;1973;50.518;7.318;2023-09-08T10:04:48;8.13;;;6.00;;
3916;SDS011;1973;50.518;7.318;2023-09-08T10:07:18;6.77;;;6.17;;
3916;SDS011;1973;50.518;7.318;2023-09-08T10:09:45;7.17;;;6.47;;
3916;SDS011;1973;50.518;7.318;2023-09-08T10:12:13;6.57;;;5.40;;
3916;SDS011;1973;50.518;7.318;2023-09-08T10:14:42;7.20;;;6.10;;
3916;SDS011;1973;50.518;7.318;2023-09-08T10:17:11;8.53;;;6.97;;
3916;SDS011;1973;50.518;7.318;2023-09-08T10:19:41;7.00;;;5.80;;
3916;SDS011;1973;50.518;7.318;2023-09-08T10:22:13;6.57;;;5.97;;
3916;SDS011;1973;50.518;7.318;2023-09-08T10:24:46;7.60;;;5.90;;
3916;SDS011;1973;50.518;7.318;2023-09-08T10:27:14;6.67;;;6.10;;
3916;SDS011;1973;50.518;7.318;2023-09-08T10:29:45;6.50;;;5.90;;
3916;SDS011;1973;50.518;7.318;2023-09-08T10:32:13;7.53;;;6.17;;
3916;SDS011;1973;50.518;7.318;2023-09-08T10:34:40;6.97;;;6.20;;
3916;SDS011;1973;50.518;7.318;2023-09-08T10:37:21;6.23;;;5.63;;
3916;SDS011;1973;50.518;7.318;2023-09-08T10:39:51;6.80;;;6.10;;
3916;SDS011;1973;50.518;7.318;2023-09-08T10:47:30;6.93;;;6.30;;
3916;SDS011;1973;50.518;7.318;2023-09-08T10:50:00;6.67;;;6.07;;
3916;SDS011;1973;50.518;7.318;2023-09-08T10:52:29;6.73;;;6.03;;
3916;SDS011;1973;50.518;7.318;2023-09-08T10:54:56;7.37;;;6.77;;
3916;SDS011;1973;50.518;7.318;2023-09-08T10:57:24;9.97;;;6.83;;
3916;SDS011;1973;50.518;7.318;2023-09-08T10:59:52;7.40;;;6.70;;
3916;SDS011;1973;50.518;7.318;2023-09-08T11:02:33;6.83;;;6.20;;
3916;SDS011;1973;50.518;7.318;2023-09-08T11:05:15;6.27;;;5.53;;
3916;SDS011;1973;50.518;7.318;2023-09-08T11:07:43;7.23;;;6.47;;
3916;SDS011;1973;50.518;7.318;2023-09-08T11:10:11;6.47;;;5.87;;
3916;SDS011;1973;50.518;7.318;2023-09-08T11:12:39;6.47;;;5.87;;
3916;SDS011;1973;50.518;7.318;2023-09-08T11:15:06;7.90;;;6.73;;
3916;SDS011;1973;50.518;7.318;2023-09-08T11:17:36;6.93;;;6.33;;
3916;SDS011;1973;50.518;7.318;2023-09-08T11:20:08;8.17;;;6.40;;
3916;SDS011;1973;50.518;7.318;2023-09-08T11:22:39;8.80;;;6.30;;
3916;SDS011;1973;50.518;7.318;2023-09-08T11:25:07;7.17;;;5.97;;
3916;SDS011;1973;50.518;7.318;2023-09-08T11:27:35;6.17;;;5.57;;
3916;SDS011;1973;50.518;7.318;2023-09-08T11:30:02;7.47;;;6.77;;
3916;SDS011;1973;50.518;7.318;2023-09-08T11:32:31;6.60;;;5.97;;
3916;SDS011;1973;50.518;7.318;2023-09-08T11:35:03;8.53;;;6.23;;
3916;SDS011;1973;50.518;7.318;2023-09-08T11:37:31;6.87;;;6.27;;
3916;SDS011;1973;50.518;7.318;2023-09-08T11:39:57;7.40;;;6.03;;
3916;SDS011;1973;50.518;7.318;2023-09-08T11:42:24;7.23;;;5.90;;
3916;SDS011;1973;50.518;7.318;2023-09-08T11:44:51;6.73;;;6.13;;
3916;SDS011;1973;50.518;7.318;2023-09-08T11:47:19;7.83;;;6.17;;
3916;SDS011;1973;50.518;7.318;2023-09-08T11:49:46;5.60;;;5.07;;
3916;SDS011;1973;50.518;7.318;2023-09-08T11:52:12;5.93;;;5.40;;
3916;SDS011;1973;50.518;7.318;2023-09-08T11:54:39;5.57;;;5.07;;
3916;SDS011;1973;50.518;7.318;2023-09-08T11:57:21;7.23;;;5.63;;
3916;SDS011;1973;50.518;7.318;2023-09-08T11:59:47;11.70;;;6.30;;
3916;SDS011;1973;50.518;7.318;2023-09-08T12:02:14;6.83;;;5.80;;
3916;SDS011;1973;50.518;7.318;2023-09-08T12:04:41;7.03;;;6.30;;
3916;SDS011;1973;50.518;7.318;2023-09-08T12:07:12;7.13;;;5.90;;
3916;SDS011;1973;50.518;7.318;2023-09-08T12:09:41;6.60;;;5.93;;
3916;SDS011;1973;50.518;7.318;2023-09-08T12:12:12;6.00;;;5.60;;
3916;SDS011;1973;50.518;7.318;2023-09-08T12:14:42;6.13;;;5.53;;
3916;SDS011;1973;50.518;7.318;2023-09-08T12:17:13;6.63;;;5.13;;
3916;SDS011;1973;50.518;7.318;2023-09-08T12:19:44;8.60;;;6.60;;
3916;SDS011;1973;50.518;7.318;2023-09-08T12:22:10;8.27;;;5.93;;
3916;SDS011;1973;50.518;7.318;2023-09-08T12:27:22;6.23;;;5.40;;
3916;SDS011;1973;50.518;7.318;2023-09-08T12:29:59;6.23;;;5.60;;
3916;SDS011;1973;50.518;7.318;2023-09-08T12:32:30;10.60;;;6.60;;
3916;SDS011;1973;50.518;7.318;2023-09-08T12:35:02;8.60;;;5.80;;
3916;SDS011;1973;50.518;7.318;2023-09-08T12:37:32;6.73;;;6.03;;
3916;SDS011;1973;50.518;7.318;2023-09-08T12:39:59;6.57;;;5.90;;
3916;SDS011;1973;50.518;7.318;2023-09-08T12:42:27;6.50;;;5.40;;
3916;SDS011;1973;50.518;7.318;2023-09-08T12:44:57;5.90;;;5.40;;
3916;SDS011;1973;50.518;7.318;2023-09-08T12:47:23;7.07;;;6.40;;
3916;SDS011;1973;50.518;7.318;2023-09-08T12:49:50;10.13;;;6.53;;
3916;SDS011;1973;50.518;7.318;2023-09-08T12:52:18;6.83;;;6.00;;
3916;SDS011;1973;50.518;7.318;2023-09-08T12:54:44;6.30;;;5.67;;
3916;SDS011;1973;50.518;7.318;2023-09-08T12:57:11;7.00;;;5.57;;
3916;SDS011;1973;50.518;7.318;2023-09-08T12:59:37;8.37;;;5.30;;
3916;SDS011;1973;50.518;7.318;2023-09-08T13:02:04;8.97;;;6.20;;
3916;SDS011;1973;50.518;7.318;2023-09-08T13:04:30;5.97;;;5.47;;
3916;SDS011;1973;50.518;7.318;2023-09-08T13:06:57;6.67;;;6.03;;
3916;SDS011;1973;50.518;7.318;2023-09-08T13:09:24;6.00;;;5.40;;
3916;SDS011;1973;50.518;7.318;2023-09-08T13:11:51;6.13;;;5.53;;
3916;SDS011;1973;50.518;7.318;2023-09-08T13:14:18;8.90;;;6.03;;
3916;SDS011;1973;50.518;7.318;2023-09-08T13:16:44;5.70;;;5.07;;
3916;SDS011;1973;50.518;7.318;2023-09-08T13:19:11;6.37;;;5.67;;
3916;SDS011;1973;50.518;7.318;2023-09-08T13:21:38;7.50;;;5.67;;
3916;SDS011;1973;50.518;7.318;2023-09-08T13:24:05;7.93;;;6.17;;
3916;SDS011;1973;50.518;7.318;2023-09-08T13:26:32;8.20;;;4.70;;
3916;SDS011;1973;50.518;7.318;2023-09-08T13:28:59;6.17;;;5.37;;
3916;SDS011;1973;50.518;7.318;2023-09-08T13:31:26;8.87;;;5.20;;
3916;SDS011;1973;50.518;7.318;2023-09-08T13:33:52;6.07;;;5.10;;
3916;SDS011;1973;50.518;7.318;2023-09-08T13:36:19;8.00;;;5.67;;
3916;SDS011;1973;50.518;7.318;2023-09-08T13:38:46;5.67;;;5.17;;
3916;SDS011;1973;50.518;7.318;2023-09-08T13:41:12;5.57;;;5.03;;
3916;SDS011;1973;50.518;7.318;2023-09-08T13:43:39;6.80;;;5.43;;
3916;SDS011;1973;50.518;7.318;2023-09-08T13:46:05;6.00;;;4.50;;
3916;SDS011;1973;50.518;7.318;2023-09-08T13:48:32;5.30;;;4.80;;
3916;SDS011;1973;50.518;7.318;2023-09-08T13:51:02;5.07;;;4.67;;
3916;SDS011;1973;50.518;7.318;2023-09-08T13:53:32;5.80;;;5.30;;
3916;SDS011;1973;50.518;7.318;2023-09-08T13:56:05;6.33;;;5.73;;
3916;SDS011;1973;50.518;7.318;2023-09-08T13:58:34;6.53;;;5.93;;
3916;SDS011;1973;50.518;7.318;2023-09-08T14:01:15;7.73;;;4.83;;
3916;SDS011;1973;50.518;7.318;2023-09-08T14:03:45;7.10;;;5.27;;
3916;SDS011;1973;50.518;7.318;2023-09-08T14:06:16;7.00;;;5.57;;
3916;SDS011;1973;50.518;7.318;2023-09-08T14:08:50;7.63;;;5.43;;
3916;SDS011;1973;50.518;7.318;2023-09-08T14:11:21;8.40;;;5.20;;
3916;SDS011;1973;50.518;7.318;2023-09-08T14:14:00;5.73;;;5.13;;
3916;SDS011;1973;50.518;7.318;2023-09-08T14:16:27;5.70;;;5.20;;
3916;SDS011;1973;50.518;7.318;2023-09-08T14:18:53;5.90;;;5.30;;
3916;SDS011;1973;50.518;7.318;2023-09-08T14:21:20;6.10;;;5.33;;
3916;SDS011;1973;50.518;7.318;2023-09-08T14:23:46;6.30;;;5.70;;
3916;SDS011;1973;50.518;7.318;2023-09-08T14:26:13;6.30;;;5.80;;
3916;SDS011;1973;50.518;7.318;2023-09-08T14:28:40;6.17;;;4.87;;
3916;SDS011;1973;50.518;7.318;2023-09-08T14:31:07;6.23;;;5.63;;
3916;SDS011;1973;50.518;7.318;2023-09-08T14:33:34;7.10;;;5.80;;
3916;SDS011;1973;50.518;7.318;2023-09-08T14:36:01;4.97;;;4.57;;
3916;SDS011;1973;50.518;7.318;2023-09-08T14:38:27;6.33;;;5.40;;
3916;SDS011;1973;50.518;7.318;2023-09-08T14:41:00;6.33;;;5.50;;
3916;SDS011;1973;50.518;7.318;2023-09-08T14:43:29;5.60;;;5.10;;
3916;SDS011;1973;50.518;7.318;2023-09-08T14:45:55;5.67;;;5.13;;
3916;SDS011;1973;50.518;7.318;2023-09-08T14:48:25;5.83;;;5.20;;
3916;SDS011;1973;50.518;7.318;2023-09-08T14:50:52;5.40;;;4.90;;
3916;SDS011;1973;50.518;7.318;2023-09-08T14:53:18;6.17;;;5.63;;
3916;SDS011;1973;50.518;7.318;2023-09-08T14:55:45;5.67;;;4.70;;
3916;SDS011;1973;50.518;7.318;2023-09-08T14:58:14;7.70;;;5.07;;
3916;SDS011;1973;50.518;7.318;2023-09-08T15:00:42;6.20;;;5.17;;
3916;SDS011;1973;50.518;7.318;2023-09-08T15:03:10;5.30;;;4.80;;
3916;SDS011;1973;50.518;7.318;2023-09-08T15:05:37;4.80;;;4.40;;
3916;SDS011;1973;50.518;7.318;2023-09-08T15:08:04;6.10;;;5.60;;
3916;SDS011;1973;50.518;7.318;2023-09-08T15:10:31;6.13;;;5.40;;
3916;SDS011;1973;50.518;7.318;2023-09-08T15:12:57;5.30;;;4.80;;
3916;SDS011;1973;50.518;7.318;2023-09-08T15:15:24;6.40;;;4.80;;
3916;SDS011;1973;50.518;7.318;2023-09-08T15:17:51;6.60;;;4.30;;
3916;SDS011;1973;50.518;7.318;2023-09-08T15:20:21;4.93;;;4.53;;
3916;SDS011;1973;50.518;7.318;2023-09-08T15:22:48;5.17;;;4.67;;
3916;SDS011;1973;50.518;7.318;2023-09-08T15:25:15;5.53;;;4.63;;
3916;SDS011;1973;50.518;7.318;2023-09-08T15:27:42;5.13;;;4.67;;
3916;SDS011;1973;50.518;7.318;2023-09-08T15:30:10;4.97;;;4.57;;
3916;SDS011;1973;50.518;7.318;2023-09-08T15:32:39;5.83;;;5.23;;